Time;durP1;ratioP1;P1;durP2;ratioP2;P2;SDS_P1;SDS_P2;PMS_P1;PMS_P2;Temp;Humidity;BMP_temperature;BMP_pressure;BME280_temperature;BME280_humidity;BME280_pressure;Samples;Min_cycle;Max_cycle;Signal;HPM_P1;HPM_P2
2022/05/14 00:01:14;;;;;;;9.63;3.88;;;;;;;10.16;63.39;99575.34;8207828;28;20061;-71
2022/05/14 00:05:18;;;;;;;8.63;3.85;;;;;;;10.02;63.95;99575.28;8234347;28;20474;-71
2022/05/14 00:09:19;;;;;;;9.32;4.03;;;;;;;9.95;63.82;99584.81;8202886;28;20043;-71
2022/05/14 00:13:20;;;;;;;11.05;4.07;;;;;;;9.88;64.22;99584.41;8203445;28;20101;-71
2022/05/14 00:17:21;;;;;;;12.30;3.50;;;;;;;9.85;64.53;99579.59;8231327;28;20134;-71
2022/05/14 00:21:22;;;;;;;9.60;4.15;;;;;;;9.82;64.48;99569.38;8206488;28;20054;-71
2022/05/14 00:25:24;;;;;;;12.60;4.38;;;;;;;9.74;64.78;99568.94;8201686;28;20467;-71
2022/05/14 00:29:27;;;;;;;7.13;3.95;;;;;;;9.67;64.99;99571.22;8201468;28;20746;-71
2022/05/14 00:33:28;;;;;;;9.73;4.60;;;;;;;9.57;65.11;99574.03;8203122;28;20047;-71
2022/05/14 00:37:29;;;;;;;10.57;4.38;;;;;;;9.44;65.67;99580.16;8206830;28;20051;-71
2022/05/14 00:41:30;;;;;;;9.75;4.60;;;;;;;9.37;65.84;99585.09;8200842;28;20062;-71
2022/05/14 00:45:33;;;;;;;8.55;4.50;;;;;;;9.33;65.78;99584.06;8200481;28;20051;-72
2022/05/14 00:49:34;;;;;;;9.38;3.88;;;;;;;9.26;65.79;99589.00;8203143;28;20047;-71
2022/05/14 00:53:44;;;;;;;8.52;3.80;;;;;;;9.20;65.98;99596.34;8218293;28;20062;-71
2022/05/14 00:57:45;;;;;;;9.18;4.07;;;;;;;9.09;66.46;99588.69;8200393;28;20078;-71
2022/05/14 01:01:48;;;;;;;14.80;3.75;;;;;;;9.03;66.67;99579.03;8199367;28;20475;-71
2022/05/14 01:05:51;;;;;;;11.00;3.75;;;;;;;8.99;66.70;99583.41;8200803;28;20051;-70
2022/05/14 01:09:57;;;;;;;10.23;3.63;;;;;;;8.92;66.74;99578.34;8200601;28;20058;-71
2022/05/14 01:13:58;;;;;;;12.48;3.53;;;;;;;8.87;66.89;99576.53;8230292;28;20101;-71
2022/05/14 01:17:59;;;;;;;13.13;3.53;;;;;;;8.84;67.14;99560.91;8216314;28;20138;-71
2022/05/14 01:22:10;;;;;;;11.55;3.35;;;;;;;8.81;67.56;99561.50;8244833;28;20043;-70
2022/05/14 01:26:29;;;;;;;17.25;3.63;;;;;;;8.79;67.78;99569.06;8208517;28;20055;-71
2022/05/14 01:30:30;;;;;;;10.95;3.00;;;;;;;8.78;67.76;99562.06;8212867;28;20057;-71
2022/05/14 01:34:32;;;;;;;6.95;2.95;;;;;;;8.73;68.01;99564.81;8197576;28;20055;-71
2022/05/14 01:38:35;;;;;;;8.35;3.15;;;;;;;8.65;68.08;99557.34;8199537;28;20051;-71
2022/05/14 01:42:36;;;;;;;6.97;2.95;;;;;;;8.60;67.95;99565.47;8222282;28;20074;-71
2022/05/14 01:46:37;;;;;;;9.90;3.50;;;;;;;8.53;68.29;99554.25;8199851;28;20051;-71
2022/05/14 01:50:38;;;;;;;9.60;3.40;;;;;;;8.49;68.80;99553.22;8199549;28;20071;-71
2022/05/14 01:54:39;;;;;;;14.02;3.78;;;;;;;8.47;68.67;99555.38;8200617;28;20047;-71
2022/05/14 01:58:40;;;;;;;5.70;3.35;;;;;;;8.42;68.67;99563.50;8205692;28;20130;-71
2022/05/14 02:02:43;;;;;;;12.55;4.07;;;;;;;8.38;68.79;99562.47;8186420;28;20499;-71
2022/05/14 02:06:44;;;;;;;10.07;4.07;;;;;;;8.43;68.97;99559.72;8237805;28;20089;-71
2022/05/14 02:10:46;;;;;;;13.82;4.80;;;;;;;8.50;68.95;99565.59;8221372;28;20050;-72
2022/05/14 02:14:46;;;;;;;13.43;4.57;;;;;;;8.59;68.89;99558.50;8213607;28;20075;-71
2022/05/14 02:18:47;;;;;;;11.10;5.50;;;;;;;8.60;68.67;99559.28;8203289;28;20055;-71
2022/05/14 02:22:48;;;;;;;14.65;5.03;;;;;;;8.59;68.83;99553.09;8205977;28;20154;-72
2022/05/14 02:26:49;;;;;;;12.23;4.68;;;;;;;8.64;69.05;99557.63;8204684;28;20093;-71
2022/05/14 02:30:50;;;;;;;8.50;5.10;;;;;;;8.66;68.86;99558.97;8205322;28;20043;-72
2022/05/14 02:34:51;;;;;;;10.82;5.28;;;;;;;8.57;69.02;99554.47;8205164;28;20424;-71
2022/05/14 02:38:52;;;;;;;13.07;4.88;;;;;;;8.53;69.60;99548.84;8204654;28;20063;-71
2022/05/14 02:42:53;;;;;;;11.27;5.57;;;;;;;8.52;69.61;99552.63;8235593;28;20414;-70
2022/05/14 02:46:54;;;;;;;17.80;5.47;;;;;;;8.54;69.68;99550.47;8231858;28;20039;-71
2022/05/14 02:50:59;;;;;;;9.93;5.55;;;;;;;8.59;70.04;99536.94;8207995;28;20043;-71
2022/05/14 02:55:00;;;;;;;12.50;4.80;;;;;;;8.66;70.40;99533.94;8204652;28;20105;-71
2022/05/14 02:59:07;;;;;;;12.38;4.97;;;;;;;8.73;70.27;99532.50;8203296;28;20114;-71
2022/05/14 03:03:08;;;;;;;17.27;5.25;;;;;;;8.78;70.49;99534.31;8226751;28;20043;-71
2022/05/14 03:07:10;;;;;;;16.35;5.32;;;;;;;8.75;70.64;99530.31;8215280;28;20114;-71
2022/05/14 03:11:11;;;;;;;14.25;5.15;;;;;;;8.79;70.92;99531.34;8218018;28;20102;-71
2022/05/14 03:15:13;;;;;;;12.60;5.22;;;;;;;8.81;71.21;99529.19;8205111;28;20400;-71
2022/05/14 03:19:14;;;;;;;16.83;4.88;;;;;;;8.86;70.87;99542.59;8203625;28;20059;-71
2022/05/14 03:23:15;;;;;;;16.10;5.32;;;;;;;8.92;70.76;99539.84;8220179;28;20098;-71
2022/05/14 03:27:16;;;;;;;14.07;4.90;;;;;;;8.95;70.60;99544.63;8205334;28;20051;-71
2022/05/14 03:31:17;;;;;;;8.55;4.95;;;;;;;8.89;70.43;99547.38;8212479;28;20050;-70
2022/05/14 03:35:18;;;;;;;12.57;4.88;;;;;;;8.84;70.66;99533.19;8203383;28;20134;-71
2022/05/14 03:39:19;;;;;;;9.32;4.82;;;;;;;8.78;70.73;99535.13;8203092;28;20058;-71
2022/05/14 03:43:20;;;;;;;14.32;4.57;;;;;;;8.72;70.71;99536.28;8203309;28;20051;-71
2022/05/14 03:47:21;;;;;;;13.38;5.10;;;;;;;8.74;70.78;99534.09;8216662;28;20058;-71
2022/05/14 03:51:22;;;;;;;15.68;4.55;;;;;;;8.76;70.86;99526.53;8202483;28;20134;-71
2022/05/14 03:55:24;;;;;;;9.93;4.55;;;;;;;8.82;70.87;99541.56;8215908;28;20499;-71
2022/05/14 03:59:24;;;;;;;11.75;4.47;;;;;;;8.91;70.75;99533.66;8202455;28;20149;-71
2022/05/14 04:03:26;;;;;;;14.65;5.15;;;;;;;8.98;70.90;99538.69;8200328;28;20051;-71
2022/05/14 04:07:27;;;;;;;14.52;5.03;;;;;;;9.10;71.40;99536.38;8224701;28;20047;-71
2022/05/14 04:11:28;;;;;;;10.05;4.13;;;;;;;9.30;71.10;99541.53;8202171;28;20054;-71
2022/05/14 04:15:29;;;;;;;7.70;3.85;;;;;;;9.47;71.48;99536.41;8203232;28;20866;-72
2022/05/14 04:19:30;;;;;;;9.93;4.53;;;;;;;9.67;71.90;99541.56;8202352;28;20059;-71
2022/05/14 04:23:32;;;;;;;15.07;4.20;;;;;;;9.85;71.75;99547.22;8202495;28;20138;-71
2022/05/14 04:27:33;;;;;;;9.02;4.78;;;;;;;10.02;71.72;99536.69;8202634;28;20087;-71
2022/05/14 04:31:35;;;;;;;16.30;4.22;;;;;;;10.13;71.72;99543.53;8204278;28;20070;-71
2022/05/14 04:35:36;;;;;;;8.90;4.07;;;;;;;10.28;71.49;99524.41;8227218;28;20073;-72
2022/05/14 04:39:37;;;;;;;15.55;4.40;;;;;;;10.40;71.04;99530.16;8211255;28;20051;-71
2022/05/14 04:43:38;;;;;;;15.82;3.88;;;;;;;10.56;70.71;99536.88;8200813;28;20518;-72
2022/05/14 04:47:41;;;;;;;12.38;3.75;;;;;;;10.77;70.26;99531.09;8201614;28;20082;-72
2022/05/14 04:51:44;;;;;;;11.13;3.85;;;;;;;10.95;69.72;99527.47;8200443;28;20058;-72
2022/05/14 04:55:47;;;;;;;18.23;3.67;;;;;;;11.09;69.60;99533.72;8230374;28;20064;-73
2022/05/14 04:59:48;;;;;;;16.10;3.67;;;;;;;11.26;68.74;99533.88;8211633;28;20566;-72
2022/05/14 05:03:49;;;;;;;10.65;3.80;;;;;;;11.35;68.78;99534.78;8198321;28;20058;-73
2022/05/14 05:07:50;;;;;;;10.82;4.35;;;;;;;11.44;68.31;99538.34;8209575;28;20451;-73
2022/05/14 05:11:51;;;;;;;12.95;4.55;;;;;;;11.60;68.00;99543.44;8244331;28;20101;-72
2022/05/14 05:15:52;;;;;;;16.30;3.92;;;;;;;11.74;67.46;99550.44;8230812;28;20051;-73
2022/05/14 05:19:53;;;;;;;10.32;3.63;;;;;;;12.04;66.84;99548.94;8203832;28;20102;-71
2022/05/14 05:23:54;;;;;;;12.75;3.30;;;;;;;12.43;65.34;99563.66;8204504;28;20549;-71
2022/05/14 05:27:55;;;;;;;5.63;2.83;;;;;;;12.64;64.73;99567.47;8198285;28;20047;-71
2022/05/14 05:31:59;;;;;;;12.80;3.40;;;;;;;12.70;64.59;99572.44;8197806;28;20081;-71
2022/05/14 05:36:00;;;;;;;14.98;3.50;;;;;;;12.77;64.17;99566.59;8197629;28;20142;-71
2022/05/14 05:40:03;;;;;;;10.20;3.42;;;;;;;12.81;64.03;99562.13;8229702;28;20142;-71
2022/05/14 05:44:04;;;;;;;8.27;2.90;;;;;;;12.92;62.85;99557.22;8199754;28;20058;-71
2022/05/14 05:48:05;;;;;;;11.70;3.22;;;;;;;12.99;62.60;99563.81;8197528;28;20047;-71
2022/05/14 05:52:06;;;;;;;13.30;4.43;;;;;;;13.11;62.49;99560.50;8199706;28;20130;-71
2022/05/14 06:00:28;;;;;;;;;;;;;;;13.33;62.65;99570.47;8199726;28;20107;-71
2022/05/14 06:04:29;;;;;;;9.27;2.95;;;;;;;13.37;61.84;99563.31;8199301;28;19930;-71
2022/05/14 06:08:31;;;;;;;10.65;3.33;;;;;;;13.51;60.60;99569.41;8199193;28;20058;-71
2022/05/14 06:12:34;;;;;;;9.73;2.90;;;;;;;13.63;60.58;99561.47;8199597;28;20059;-71
2022/05/14 06:16:35;;;;;;;8.68;3.28;;;;;;;13.75;60.66;99568.94;8199465;28;20106;-71
2022/05/14 06:20:38;;;;;;;11.15;2.90;;;;;;;13.93;60.20;99571.38;8199341;28;20389;-71
2022/05/14 06:24:39;;;;;;;10.88;2.97;;;;;;;14.18;60.15;99567.03;8197058;29;20057;-71
2022/05/14 06:28:40;;;;;;;11.60;2.90;;;;;;;14.36;59.17;99573.25;8199148;28;20043;-72
2022/05/14 06:32:42;;;;;;;7.85;2.92;;;;;;;14.35;59.72;99571.66;8197805;29;20058;-72
2022/05/14 06:36:43;;;;;;;12.77;3.38;;;;;;;14.31;59.73;99565.28;8199311;28;20487;-71
2022/05/14 06:40:44;;;;;;;10.98;3.70;;;;;;;14.33;59.83;99563.03;8196604;29;20312;-71
2022/05/14 06:44:45;;;;;;;26.20;3.45;;;;;;;14.36;59.43;99568.66;8200741;28;20048;-72
2022/05/14 06:48:46;;;;;;;13.75;3.15;;;;;;;14.50;59.54;99571.19;8204607;28;20047;-71
2022/05/14 06:52:51;;;;;;;8.60;2.72;;;;;;;14.65;59.45;99570.66;8204447;28;20197;-71
2022/05/14 06:56:51;;;;;;;14.95;3.53;;;;;;;14.76;57.95;99561.03;8204332;28;20079;-72
2022/05/14 07:00:53;;;;;;;11.52;3.63;;;;;;;14.85;57.63;99560.22;8204034;28;20055;-71
2022/05/14 07:09:22;;;;;;;18.25;3.80;;;;;;;15.20;56.34;99556.22;8204043;28;20054;-71
2022/05/14 07:13:23;;;;;;;10.52;3.15;;;;;;;15.40;54.55;99546.50;8202849;28;20065;-71
2022/05/14 07:17:32;;;;;;;9.63;2.85;;;;;;;15.57;55.72;99541.78;8203956;28;20051;-71
2022/05/14 07:21:34;;;;;;;18.08;2.92;;;;;;;15.75;54.72;99547.09;8203740;28;20090;-71
2022/05/14 07:25:35;;;;;;;14.60;3.53;;;;;;;15.91;52.53;99539.94;8203459;28;20090;-71
2022/05/14 07:29:41;;;;;;;10.65;3.60;;;;;;;16.17;52.45;99543.22;8203531;28;20499;-72
2022/05/14 07:33:42;;;;;;;12.02;3.47;;;;;;;16.56;51.63;99541.84;8203073;28;20058;-72
2022/05/14 07:37:50;;;;;;;9.68;2.97;;;;;;;16.59;51.29;99545.88;8203210;28;20066;-71
2022/05/14 07:41:54;;;;;;;16.80;4.05;;;;;;;16.70;49.95;99549.75;8202916;28;20052;-72
2022/05/14 07:45:59;;;;;;;9.75;3.55;;;;;;;16.88;50.23;99545.69;8201727;29;20053;-72
2022/05/14 07:50:01;;;;;;;13.88;3.42;;;;;;;17.09;49.56;99540.91;8201574;28;20470;-72
2022/05/14 07:54:03;;;;;;;7.00;3.38;;;;;;;17.10;48.31;99547.97;8200543;28;20062;-71
2022/05/14 07:58:04;;;;;;;11.95;3.53;;;;;;;17.09;46.95;99546.38;8202325;29;20082;-72
2022/05/14 08:02:09;;;;;;;15.52;3.50;;;;;;;17.12;47.52;99540.25;8202313;28;20482;-72
2022/05/14 08:06:11;;;;;;;13.38;3.47;;;;;;;17.26;47.69;99546.16;8202073;28;20063;-72
2022/05/14 08:10:13;;;;;;;14.43;3.95;;;;;;;17.26;46.64;99548.88;8202061;28;20047;-71
2022/05/14 08:14:14;;;;;;;10.75;3.50;;;;;;;17.24;46.57;99559.34;8200020;28;20082;-72
2022/05/14 08:18:16;;;;;;;10.35;3.45;;;;;;;17.24;47.84;99542.94;8215904;28;20408;-72
2022/05/14 08:26:36;;;;;;;7.80;3.80;;;;;;;17.44;47.40;99540.44;8201694;28;20043;-72
2022/05/14 08:30:37;;;;;;;10.73;3.63;;;;;;;17.73;47.03;99532.00;8216466;28;20063;-72
2022/05/14 08:34:38;;;;;;;9.88;3.58;;;;;;;17.90;46.36;99520.78;8199421;29;20130;-72
2022/05/14 08:38:39;;;;;;;10.38;3.40;;;;;;;17.87;46.86;99543.31;8182958;28;20059;-72
2022/05/14 08:42:40;;;;;;;8.38;3.40;;;;;;;17.66;46.92;99540.75;8215227;28;20090;-72
2022/05/14 08:46:43;;;;;;;13.15;3.70;;;;;;;17.62;46.91;99533.59;8201254;28;20105;-72
2022/05/14 08:50:50;;;;;;;16.52;5.63;;;;;;;17.97;44.53;99526.47;8200800;28;20138;-71
2022/05/14 08:55:00;;;;;;;10.88;4.43;;;;;;;17.97;44.36;99523.75;8199542;28;20059;-73
2022/05/14 08:59:28;;;;;;;13.40;4.22;;;;;;;17.83;45.35;99526.03;8200860;28;20605;-72
2022/05/14 09:03:30;;;;;;;10.30;4.32;;;;;;;18.25;45.49;99531.13;8215547;28;20098;-72
2022/05/14 09:07:31;;;;;;;13.48;4.60;;;;;;;18.72;44.54;99529.28;8197973;28;20047;-72
2022/05/14 09:11:45;;;;;;;10.05;4.95;;;;;;;18.57;44.42;99532.78;8198248;28;20062;-72
2022/05/14 09:15:59;;;;;;;16.77;5.85;;;;;;;18.64;44.17;99541.19;8200268;28;20061;-71
2022/05/14 09:20:00;;;;;;;14.25;5.35;;;;;;;18.71;44.33;99549.59;8200066;28;20059;-71
2022/05/14 09:24:13;;;;;;;13.52;4.70;;;;;;;18.50;45.61;99541.59;8200121;28;20051;-71
2022/05/14 09:28:44;;;;;;;11.10;5.18;;;;;;;18.86;45.08;99545.28;8164540;29;20051;-71
2022/05/14 09:32:45;;;;;;;10.13;5.30;;;;;;;18.54;45.64;99536.25;8164212;29;20062;-71
2022/05/14 09:36:49;;;;;;;15.68;6.78;;;;;;;18.76;45.11;99546.59;8132517;29;20044;-71
2022/05/14 09:40:51;;;;;;;18.55;6.95;;;;;;;18.89;44.23;99539.88;8164192;29;20776;-71
2022/05/14 09:44:55;;;;;;;15.10;5.82;;;;;;;19.21;43.21;99539.84;8164154;29;20059;-72
2022/05/14 09:49:08;;;;;;;17.73;6.53;;;;;;;19.08;43.34;99535.66;8148373;29;20050;-72
2022/05/14 09:53:09;;;;;;;15.45;5.57;;;;;;;19.23;42.04;99537.56;8164149;29;20055;-72
2022/05/14 09:57:34;;;;;;;19.08;4.82;;;;;;;19.22;43.31;99546.94;8164195;29;20055;-71
2022/05/14 10:01:48;;;;;;;21.80;5.22;;;;;;;18.90;44.54;99536.00;8164133;29;20059;-72
2022/05/14 10:06:15;;;;;;;14.60;5.30;;;;;;;18.81;44.43;99535.38;8197696;28;20055;-72
2022/05/14 10:10:31;;;;;;;11.80;4.15;;;;;;;19.35;43.40;99540.22;8214250;28;20057;-71
2022/05/14 10:14:42;;;;;;;15.95;4.90;;;;;;;19.06;43.27;99532.47;8198204;28;20130;-72
2022/05/14 10:18:55;;;;;;;10.20;4.40;;;;;;;18.96;44.17;99533.78;8202113;28;20059;-71
2022/05/14 10:27:40;;;;;;;16.13;4.22;;;;;;;19.01;43.30;99525.31;8205199;28;20055;-72
2022/05/14 10:31:48;;;;;;;13.88;4.05;;;;;;;19.05;42.53;99533.59;8187012;28;20083;-71
2022/05/14 10:36:10;;;;;;;11.77;3.72;;;;;;;18.95;43.77;99533.00;8233017;28;20058;-71
2022/05/14 10:40:36;;;;;;;14.38;4.22;;;;;;;19.47;42.53;99515.44;8233004;28;20146;-72
2022/05/14 10:44:52;;;;;;;23.08;4.35;;;;;;;19.64;41.96;99517.78;8232739;28;20054;-72
2022/05/14 10:49:05;;;;;;;7.60;3.90;;;;;;;19.29;40.79;99525.19;8232879;28;20046;-71
2022/05/14 10:53:08;;;;;;;9.60;3.40;;;;;;;19.15;41.14;99524.84;8232848;28;20124;-72
2022/05/14 10:57:15;;;;;;;16.45;3.38;;;;;;;19.52;40.63;99528.88;8232551;28;20094;-72
2022/05/14 11:01:27;;;;;;;8.82;2.85;;;;;;;20.09;40.48;99513.63;8232367;28;20058;-73
2022/05/14 11:05:33;;;;;;;17.20;3.33;;;;;;;20.21;39.45;99524.44;8221977;28;20051;-72
2022/05/14 11:09:46;;;;;;;10.90;3.13;;;;;;;20.32;37.94;99500.78;8204212;28;20130;-71
2022/05/14 11:14:02;;;;;;;13.70;3.40;;;;;;;20.20;38.44;99498.16;8186228;28;20047;-71
2022/05/14 11:18:09;;;;;;;15.00;3.85;;;;;;;20.33;39.78;99510.59;8203820;28;20047;-72
2022/05/14 11:22:30;;;;;;;8.95;3.20;;;;;;;20.16;40.37;99508.28;8203594;28;20139;-72
2022/05/14 11:26:49;;;;;;;7.00;2.55;;;;;;;20.34;40.67;99508.66;8201477;29;20047;-72
2022/05/14 11:30:55;;;;;;;13.63;3.07;;;;;;;20.47;39.84;99508.09;8200891;28;20193;-72
2022/05/14 11:34:59;;;;;;;11.20;3.20;;;;;;;20.85;38.97;99500.91;8216950;28;20059;-71
2022/05/14 11:39:07;;;;;;;9.15;2.85;;;;;;;20.65;39.49;99511.97;8230672;28;20594;-71
2022/05/14 11:43:30;;;;;;;7.47;2.85;;;;;;;20.44;39.86;99503.34;8182884;28;20080;-72
2022/05/14 11:47:39;;;;;;;11.30;2.72;;;;;;;20.79;39.48;99513.34;8231111;28;20055;-71
2022/05/14 11:51:51;;;;;;;9.30;2.65;;;;;;;21.00;38.61;99513.69;8231204;28;20117;-72
2022/05/14 11:55:55;;;;;;;7.30;2.50;;;;;;;21.11;37.70;99503.69;8231316;28;20062;-72
2022/05/14 12:00:05;;;;;;;13.90;2.95;;;;;;;21.38;36.88;99485.28;8198514;28;20085;-71
2022/05/14 12:04:17;;;;;;;12.27;2.90;;;;;;;21.71;35.74;99498.28;8230432;28;20047;-71
2022/05/14 12:08:37;;;;;;;11.70;2.92;;;;;;;21.24;35.83;99502.34;8222383;28;20047;-72
2022/05/14 12:12:42;;;;;;;7.00;2.60;;;;;;;20.94;36.61;99493.19;8202309;28;20051;-72
2022/05/14 12:16:46;;;;;;;10.30;2.40;;;;;;;21.36;35.94;99491.13;8201959;28;20055;-71
2022/05/14 12:21:06;;;;;;;9.30;2.35;;;;;;;21.46;35.04;99493.25;8201920;28;20499;-71
2022/05/14 12:25:08;;;;;;;8.80;1.92;;;;;;;21.48;34.01;99485.41;8201708;28;20059;-73
2022/05/14 12:29:30;;;;;;;6.28;2.17;;;;;;;21.77;34.73;99485.78;8201898;28;20055;-72
2022/05/14 12:33:31;;;;;;;14.95;2.33;;;;;;;21.74;32.99;99486.53;8201397;28;20070;-72
2022/05/14 12:37:40;;;;;;;12.35;2.42;;;;;;;21.48;33.83;99492.88;8199552;29;20082;-71
2022/05/14 12:41:42;;;;;;;10.75;2.33;;;;;;;21.58;33.38;99491.41;8200257;28;20110;-72
2022/05/14 12:45:45;;;;;;;12.68;2.30;;;;;;;21.94;33.23;99468.75;8201005;28;20051;-72
2022/05/14 12:49:47;;;;;;;16.10;2.22;;;;;;;21.75;32.73;99477.13;8199903;28;20050;-71
2022/05/14 12:53:48;;;;;;;15.63;2.70;;;;;;;21.35;33.45;99486.81;8200957;28;20054;-72
2022/05/14 12:57:54;;;;;;;10.25;1.92;;;;;;;21.82;33.17;99471.72;8200939;28;20054;-72
2022/05/14 13:02:00;;;;;;;9.35;2.30;;;;;;;22.14;32.82;99472.91;8200799;28;20058;-72
2022/05/14 13:06:14;;;;;;;9.82;2.22;;;;;;;21.72;33.19;99483.38;8200715;28;20054;-72
2022/05/14 13:10:18;;;;;;;5.90;2.35;;;;;;;21.78;33.72;99479.13;8199608;29;20530;-72
2022/05/14 13:14:29;;;;;;;7.45;2.08;;;;;;;22.25;33.56;99495.81;8199087;29;20056;-72
2022/05/14 13:18:33;;;;;;;11.85;1.90;;;;;;;22.30;33.40;99464.41;8200698;28;20411;-71
2022/05/14 13:22:40;;;;;;;12.05;2.45;;;;;;;22.37;32.66;99474.69;8214685;28;20106;-72
2022/05/14 13:26:44;;;;;;;9.88;2.03;;;;;;;22.67;31.92;99467.13;8214922;28;20047;-72
2022/05/14 13:30:47;;;;;;;11.88;2.15;;;;;;;22.23;32.93;99465.13;8200144;28;20106;-71
2022/05/14 13:39:13;;;;;;;9.90;2.33;;;;;;;22.72;31.26;99466.78;8200036;28;20059;-72
2022/05/14 13:43:22;;;;;;;12.15;2.42;;;;;;;22.03;32.77;99460.19;8198740;28;20071;-72
2022/05/14 13:47:25;;;;;;;15.73;1.92;;;;;;;22.03;33.12;99455.50;8199736;28;20419;-72
2022/05/14 13:51:36;;;;;;;13.18;2.17;;;;;;;21.77;33.62;99461.06;8215356;28;20130;-72
2022/05/14 13:55:40;;;;;;;8.63;2.20;;;;;;;22.03;33.30;99452.75;8206407;28;20054;-71
2022/05/14 13:59:41;;;;;;;10.38;2.20;;;;;;;23.64;31.84;99450.06;8205998;28;20063;-72
2022/05/14 14:03:49;;;;;;;9.73;2.10;;;;;;;23.56;30.49;99446.50;8205934;28;20055;-72
2022/05/14 14:07:50;;;;;;;12.33;2.17;;;;;;;24.37;29.44;99452.25;8206210;28;20051;-72
2022/05/14 14:11:51;;;;;;;7.93;2.05;;;;;;;23.85;30.56;99444.63;8206142;28;20354;-72
2022/05/14 14:15:52;;;;;;;7.03;2.03;;;;;;;23.01;31.66;99449.31;8187973;29;20528;-72
2022/05/14 14:19:53;;;;;;;8.23;2.20;;;;;;;22.58;31.66;99453.66;8205857;28;20408;-71
2022/05/14 14:23:56;;;;;;;7.45;2.00;;;;;;;24.07;30.18;99448.25;8205723;28;20126;-72
2022/05/14 14:27:57;;;;;;;12.32;2.20;;;;;;;25.80;28.81;99458.44;8204003;28;20051;-71
2022/05/14 14:31:58;;;;;;;10.23;2.10;;;;;;;25.28;29.48;99460.13;8205302;28;20538;-72
2022/05/14 14:36:00;;;;;;;10.95;2.40;;;;;;;26.26;27.80;99442.38;8205243;28;20055;-71
2022/05/14 14:40:00;;;;;;;10.48;2.33;;;;;;;25.50;27.60;99445.88;8203770;29;20128;-71
2022/05/14 14:44:03;;;;;;;9.57;2.22;;;;;;;24.34;29.53;99452.28;8204949;28;20047;-72
2022/05/14 14:48:05;;;;;;;10.18;1.85;;;;;;;24.45;30.09;99453.06;8204805;28;20047;-71
2022/05/14 14:52:06;;;;;;;9.15;1.73;;;;;;;25.22;28.73;99452.25;8204984;28;20511;-72
2022/05/14 14:56:10;;;;;;;10.20;2.28;;;;;;;24.25;28.89;99449.09;8204643;28;20055;-72
2022/05/14 15:00:14;;;;;;;7.03;1.90;;;;;;;23.46;30.86;99448.03;8204480;28;20471;-72
2022/05/14 15:04:42;;;;;;;10.45;2.50;;;;;;;25.05;29.39;99453.09;8203431;28;20051;-72
2022/05/14 15:08:45;;;;;;;12.05;2.53;;;;;;;25.88;28.37;99451.66;8204253;28;20051;-72
2022/05/14 15:12:46;;;;;;;10.68;2.17;;;;;;;25.11;28.56;99450.72;8204063;28;20078;-72
2022/05/14 15:16:48;;;;;;;10.35;2.38;;;;;;;23.74;30.27;99452.88;8217688;28;20135;-72
2022/05/14 15:20:51;;;;;;;10.82;2.85;;;;;;;23.04;31.78;99448.56;8203966;28;20055;-72
2022/05/14 15:24:54;;;;;;;5.88;1.85;;;;;;;22.90;32.74;99453.94;8185938;29;20139;-72
2022/05/14 15:28:54;;;;;;;14.10;2.58;;;;;;;23.05;32.42;99449.34;8203568;28;20097;-71
2022/05/14 15:33:00;;;;;;;10.68;2.13;;;;;;;23.20;32.91;99444.72;8203521;28;20067;-72
2022/05/14 15:37:04;;;;;;;13.65;2.63;;;;;;;22.82;32.13;99455.06;8203336;28;20059;-72
2022/05/14 15:41:08;;;;;;;6.00;2.03;;;;;;;22.43;33.28;99445.66;8217186;28;20047;-72
2022/05/14 15:45:26;;;;;;;7.20;2.40;;;;;;;22.48;32.79;99437.06;8202879;28;20047;-72
2022/05/14 15:49:35;;;;;;;5.65;2.05;;;;;;;22.63;33.46;99444.28;8202189;28;20417;-71
2022/05/14 15:53:37;;;;;;;9.52;2.22;;;;;;;23.21;32.51;99443.53;8202665;28;20061;-71
2022/05/14 15:57:38;;;;;;;11.48;2.95;;;;;;;22.91;33.11;99450.03;8202803;28;20048;-71
2022/05/14 16:01:41;;;;;;;7.93;1.95;;;;;;;22.43;33.13;99440.16;8217345;28;20051;-71
2022/05/14 16:05:42;;;;;;;19.17;2.83;;;;;;;22.11;33.81;99442.59;8202335;28;20105;-71
2022/05/14 16:18:29;;;;;;;9.10;2.42;;;;;;;22.67;33.36;99442.34;8201795;28;20047;-72
2022/05/14 16:22:31;;;;;;;12.77;2.80;;;;;;;22.81;33.11;99456.25;8201525;28;20139;-72
2022/05/14 16:26:34;;;;;;;13.45;3.10;;;;;;;22.10;34.47;99450.06;8201661;28;20047;-72
2022/05/14 16:30:38;;;;;;;15.60;2.72;;;;;;;21.67;35.59;99464.47;8201727;28;20419;-72
2022/05/14 16:34:38;;;;;;;17.17;2.85;;;;;;;21.24;36.08;99463.91;8215270;28;20066;-71
2022/05/14 16:38:42;;;;;;;13.73;2.78;;;;;;;21.03;36.64;99463.56;8201327;28;20427;-72
2022/05/14 16:42:42;;;;;;;12.10;2.78;;;;;;;20.91;37.06;99466.50;8201573;28;20499;-71
2022/05/14 16:46:45;;;;;;;14.25;3.00;;;;;;;20.71;37.57;99473.22;8201096;28;20419;-71
2022/05/14 16:50:46;;;;;;;18.00;3.00;;;;;;;20.49;38.12;99472.06;8215000;28;20043;-72
2022/05/14 16:54:47;;;;;;;11.50;2.88;;;;;;;20.31;38.52;99471.75;8200817;28;20058;-72
2022/05/14 16:58:48;;;;;;;10.02;2.92;;;;;;;20.15;38.70;99479.25;8201215;28;20051;-72
2022/05/14 17:02:50;;;;;;;12.55;2.83;;;;;;;20.05;39.31;99468.88;8200977;28;20523;-72
2022/05/14 17:06:51;;;;;;;13.20;3.22;;;;;;;19.98;39.49;99463.28;8200643;28;20066;-72
2022/05/14 17:10:52;;;;;;;11.20;2.83;;;;;;;19.98;39.90;99468.75;8199798;28;20048;-72
2022/05/14 17:14:53;;;;;;;12.10;2.85;;;;;;;19.96;39.81;99465.59;8182864;29;20107;-71
2022/05/14 17:18:54;;;;;;;12.48;2.47;;;;;;;19.86;40.30;99466.16;8200522;28;20047;-72
2022/05/14 17:22:55;;;;;;;12.15;2.60;;;;;;;19.67;40.43;99470.47;8200599;28;20051;-72
2022/05/14 17:26:56;;;;;;;14.85;3.65;;;;;;;19.57;41.08;99476.53;8199984;28;20423;-72
2022/05/14 17:30:57;;;;;;;12.32;3.05;;;;;;;19.46;41.73;99470.03;8182350;29;20130;-71
2022/05/14 17:34:58;;;;;;;18.73;2.80;;;;;;;19.30;42.46;99472.78;8200293;28;20416;-72
2022/05/14 17:43:19;;;;;;;14.43;3.10;;;;;;;19.02;43.61;99476.84;8197468;28;20399;-72
2022/05/14 17:47:22;;;;;;;12.13;3.00;;;;;;;18.81;44.13;99475.19;8198378;28;20066;-72
2022/05/14 17:51:23;;;;;;;13.30;2.75;;;;;;;18.65;45.12;99481.81;8198681;28;20051;-72
2022/05/14 17:55:26;;;;;;;12.05;2.90;;;;;;;18.44;45.67;99487.50;8199170;28;20138;-71
2022/05/14 17:59:27;;;;;;;10.43;2.97;;;;;;;18.24;46.40;99480.34;8204855;28;20114;-72
2022/05/14 18:03:28;;;;;;;13.07;2.95;;;;;;;18.05;47.11;99492.72;8220771;28;20042;-72
2022/05/14 18:07:30;;;;;;;13.02;3.17;;;;;;;17.84;48.16;99489.38;8197613;28;20525;-73
2022/05/14 18:11:40;;;;;;;16.70;3.35;;;;;;;17.62;49.27;99487.19;8198489;28;20055;-72
2022/05/14 18:15:41;;;;;;;16.58;3.38;;;;;;;17.41;50.45;99500.16;8196088;28;20059;-72
2022/05/14 18:19:42;;;;;;;17.52;3.17;;;;;;;17.21;51.00;99505.44;8181337;28;20055;-73
2022/05/14 18:23:43;;;;;;;14.30;3.60;;;;;;;17.00;51.71;99499.31;8190694;28;20055;-71
2022/05/14 18:27:57;;;;;;;11.05;2.92;;;;;;;16.81;52.45;99507.28;8200023;28;20059;-72
2022/05/14 18:31:59;;;;;;;13.82;3.42;;;;;;;16.68;52.79;99508.38;8178630;29;20129;-72
2022/05/14 18:36:02;;;;;;;9.85;3.25;;;;;;;16.54;53.39;99510.63;8197981;28;20426;-71
2022/05/14 18:40:11;;;;;;;7.28;3.00;;;;;;;16.41;53.78;99516.03;8200823;28;20109;-71
2022/05/14 18:44:14;;;;;;;16.08;3.78;;;;;;;16.28;54.08;99517.16;8204166;28;20731;-72
2022/05/14 18:48:17;;;;;;;12.48;4.15;;;;;;;16.17;54.57;99515.97;8202960;29;20055;-71
2022/05/14 18:52:18;;;;;;;23.42;4.97;;;;;;;16.04;55.31;99522.50;8204786;28;20392;-72
2022/05/14 18:56:20;;;;;;;18.25;5.03;;;;;;;15.95;55.76;99524.50;8204633;28;20055;-71
2022/05/14 19:00:23;;;;;;;16.85;4.85;;;;;;;15.85;56.42;99530.34;8203948;28;20439;-71
2022/05/14 19:08:44;;;;;;;34.55;7.05;;;;;;;15.66;57.11;99532.72;8205860;28;20058;-71
2022/05/14 19:12:45;;;;;;;41.55;8.25;;;;;;;15.57;57.49;99540.97;8204815;28;20448;-72
2022/05/14 19:16:46;;;;;;;37.63;9.68;;;;;;;15.50;57.83;99546.91;8218761;28;20134;-72
2022/05/14 19:20:47;;;;;;;40.92;8.52;;;;;;;15.39;58.10;99551.13;8203513;28;20059;-71
2022/05/14 19:24:48;;;;;;;35.45;6.82;;;;;;;15.27;58.75;99542.91;8200886;28;20118;-72
2022/05/14 19:28:51;;;;;;;26.77;8.27;;;;;;;15.20;59.06;99553.50;8206516;28;20050;-72
2022/05/14 19:32:52;;;;;;;25.50;10.00;;;;;;;15.15;59.34;99561.84;8206426;28;20396;-71
2022/05/14 19:37:10;;;;;;;16.65;8.60;;;;;;;15.04;59.82;99552.44;8207303;28;20051;-71
2022/05/14 19:41:16;;;;;;;22.15;8.25;;;;;;;14.93;60.40;99559.38;8209972;28;20110;-71